home | artists | genres | years | calendar | countries | playbacks | last played

Records of italo disco

overviewpopular tracks

Artist Record Year Power Played Added Last Played
Koto Plays Science Fiction Movie Themes 1993 2.0 8 1995-10-05 2008-03-06
Koto Mind Machine 1994 0.0 0 1995-10-05 Never
Koto Masterpieces 1990 0.0 0 1995-10-05 Never
Koto Plays World Synthesizer Hits 1990 0.0 0 1995-10-05 Never
Koto From The Dawn Of Time 1992 3.0 32 1995-10-05 2009-08-04
Laser Dance Changing Times 1990 0.0 0 2002-06-05 Never
Laser Dance Discovery Trip 1989 0.0 0 2002-06-05 Never
Laser Dance Future Generation 1985 0.0 1 2002-06-05 2011-06-13
Laser Dance Fire On Earth 1994 0.0 0 2002-06-05 Never
Laser Dance Around The Planet 1986 0.0 0 2002-06-05 Never
Laser Dance Ambiente 1991 0.0 0 2002-06-05 Never
Radiorama Desires and Vampires 1986 1.0 6 2005-08-22 2019-03-05
Radiorama The Second 1987 7.0 26 2005-08-22 2019-03-05
Radiorama The Legend 1988 2.0 6 2005-08-22 2008-03-29
Radiorama Four Years After 1989 0.0 0 2005-08-22 Never
Radiorama The Best Of 1989 0.0 0 2005-08-22 Never
Radiorama The Fifth 1990 0.0 0 2005-08-22 Never
Macrocosm Second Voyage 2005 2.0 8 2005-09-11 2015-04-30
Hypnosis Lost in Space 1991 10.0 24 2005-10-20 2015-06-29
Macrocosm First Mission 2003 0.0 0 2005-10-20 Never
various Synthesizer Dance Vol.2 1991 0.1 4 2005-10-20 2009-04-09
various Synthesizer Dance Vol.3 1991 0.0 0 2005-10-20 Never
Francisco Music Business 2005 0.0 5 2006-05-26 2006-05-27
Patrick Cowley Menergy 1981 1.0 9 2006-05-29 2008-04-05
Patrick Cowley Megatron Man 1987 0.0 0 2006-05-29 Never
Patrick Cowley Mind Warp 1992 1.0 7 2006-05-29 2015-08-07
various Italo Disco 115 2006 6.0 64 2006-06-12 2014-03-13
Hakan Lidbo Sexy Robot 2002 2.0 5 2006-08-26 2009-08-04
Hypnosis Hypnosis 1984 0.0 3 2006-08-26 2009-10-23
Rofo The Album 1988 1.0 5 2006-08-26 2012-10-21
Ambidextrous Freakocktail 2005 0.1 9 2006-09-29 2011-04-04
Laserdance The Best 1998 6.0 15 2007-01-25 2018-01-24
Laser Dance The 12" Mixes 1995 0.0 0 2007-11-21 Never
Laser Dance Strikes Back 2000 0.0 0 2007-11-21 Never
Mozzart Best Of 1988 0.0 0 2008-06-06 Never
Ajello Spasm Odyssey 2006 0.0 1 2008-06-20 2008-06-27
various Synthesize Me 2007 1.0 15 2008-07-03 2008-10-17
Rodion Romantic Jet Dance 2007 11.0 157 2008-07-25 2016-01-11
various Gomma Galactic No. 2 2008 4.0 24 2008-07-30 2013-04-20
Kano All The Best - The Long Versions 1983 1.0 6 2008-08-19 2009-05-26
Fred Ventura Disco Modernism 2008 1.0 5 2008-11-25 2011-12-29
various Disco Italia - Essential Italo Disco Classics 1977-1985 2008 0.0 0 2008-12-15 Never
various Synthstation 2008 0.0 0 2008-12-15 Never
Ajello Magic Feet 2008 0.0 2 2009-05-09 2009-04-26
Claudio Mingardi Star 1984 0.0 0 2009-05-09 Never
Hipnosis Hipnosis 1984 1.1 1 2009-05-09 2012-09-26
Röyksopp Back To Mine 2007 1.1 4 2009-05-09 2012-08-18
The Hasbeens Keep Fooling Yourself 2008 0.0 1 2009-05-09 2006-12-01
Tom Lacy Welcome To The Future 2009 1.1 8 2009-05-09 2009-09-22
Cyber Space Future On Mars 2009 1.0 7 2009-06-17 2009-09-21
Odessa Polar Intrusion 2008 1.2 5 2009-09-01 2009-10-11
Raiders Of The Lost Arp Tema5 2008 0.1 8 2009-09-01 2009-08-20
A.M.Samurai The First Element 2009 3.0 6 2009-10-01 2012-10-26
Antoni Maiovvi Shadow Of The Bloodstained Kiss 2009 0.1 2 2009-10-01 2009-10-11
Elitechnique We Shall Control 2006 2.0 4 2009-11-01 2012-12-07
Lorenz Rhode Motor Cortex 2009 0.0 1 2009-11-01 2009-10-27
Sally Shapiro My Guilty Pleasure 2009 3.0 5 2009-11-01 2012-10-25
Stephen Falken Visions 2009 0.0 2 2009-12-19 2009-12-15
Chantal Vs Diegors and The Don Dernier Volta 2009 0.0 0 2010-01-12 Never
Elitechnique Hanging On A Solina 2008 0.0 1 2010-01-12 2009-12-30
Johan Agebjörn Spacer Woman From Mars 2008 1.0 5 2010-01-12 2010-02-04
Teslasonic The Spark Of Prometheus 2009 0.0 0 2010-01-13 Never
Cyber Space Sonar Exploration 2009 0.0 0 2010-02-27 Never
Egotrya Volcano 2009 0.0 0 2010-02-27 Never
various Synthesizer Tribute To Depeche Mode 2009 2.0 17 2010-02-27 2010-03-30
Fake Brick (The Singles Collection) 2005 0.1 1 2010-04-12 2014-12-03
Freak Electrique Fright Jazz. Cloud Surfer 2005 1.0 2 2010-04-12 2012-11-23
Freak Electrique Symphony Electrique 2005 1.0 1 2010-04-12 2012-08-20
Matzo & Pauli Matzo & Pauli EP 2009 1.0 1 2010-04-12 2010-08-09
Thalassa New Electro 0 4.1 6 2010-04-12 2014-01-13
various Wings Of Destiny 2008 1.1 1 2010-04-12 2010-04-08
Bottin & Rodion Galli + Piazza Venezia 2010 1.0 7 2010-05-14 2011-04-29
College A Real Hero 2009 1.0 1 2010-05-14 2012-08-20
Galaxy Hunter Sleeping Child 2009 1.1 2 2010-07-27 2012-11-21
Rodion For Ever 2010 4.0 14 2010-08-02 2015-01-29
various Here Comes The Sound Vol.3 - AV Propulsion 0 0.0 0 2010-08-06 Never
Baltimora Living In The Background 1985 1.0 6 2010-08-07 2012-09-06
Costas Charitodiplomenos Lost In The Night 1984 0.3 0 2010-08-07 Never
Flashworx Two Guys In Japan 2000 0.0 0 2010-10-01 Never
various Euro-Moumoutte Vol.11 2010 1.0 2 2010-11-18 2011-03-28
Bottin Discocracy 2010 1.0 7 2011-03-25 2011-08-05
DMX Krew The Game 2011 0.0 0 2011-03-25 Never
Proxyon Proxyon 1989 0.0 0 2011-03-28 Never
Den Haan Gods From Outer Space 2011 2.0 2 2011-04-29 2011-10-26
Tobias Bernstrup 1984 2009 0.0 0 2011-07-21 Never
Com Truise Galactic Melt 2011 0.0 0 2011-09-08 Never
Magic Studio Light Circle 2011 0.0 0 2012-01-06 Never
Valerio Gallo Curcio Group Giochi E Immagini 1985 0.0 0 2012-01-09 Never
Synth.nl Appollo 2011 0.0 0 2012-02-13 Never
Mitch Murder Current Events 2011 2.0 14 2012-03-09 2013-10-24
Lazerhawk Visitors 2012 0.0 0 2012-03-29 Never
Fiero L'homme Bionique 2012 1.1 7 2012-05-09 2012-08-02
It & My Computer Eat My Computer! 2000 0.1 0 2012-05-09 Never
Rygar Modulation 2012 0.0 0 2012-08-04 Never
Aldo Bergamachine Astro Moog 2010 9.0 43 2012-11-23 2017-03-29
Beat Market Red Magic 2012 9.0 31 2012-11-25 2021-03-02
Complex Numbers Последнее Кольцо 2009 0.0 0 2012-12-07 Never
Raf Self Control 1984 3.0 3 2012-12-20 2020-06-07
Sandra Stay In Touch 2012 2.0 4 2012-12-20 2013-06-02
Trans-X Hi-NRG 2012 2.0 6 2012-12-29 2013-06-02
Dynatron Escape Velocity 2012 4.0 6 2013-03-05 2014-07-17
Пульс 80 Голос Забытой Эпохи 2012 0.0 0 2013-04-30 Never
Пульс 80 Путь К Мечте 2012 0.0 0 2013-04-30 Never
Pet Shop Boys Axis 2013 0.0 0 2013-04-30 Never
Pet Shop Boys Electric 2013 11.1 102 2013-07-08 2021-03-20
Dreamtime Innerstellar Jam 2013 0.0 4 2013-10-10 2013-05-24
Evgene Ikonnikov Chebarkulsky Meteorite 2013 1.0 1 2013-10-15 2013-12-11
Mitch Murder Selection One 2012 3.0 26 2013-12-01 2013-12-23
Songsworth Second Star to the Right 2013 5.0 10 2013-12-14 2014-07-09
Vector Hold Classics 2013 1.0 2 2014-04-28 2014-06-27
Маяк Выше Звёзд 2014 1.0 4 2014-05-14 2014-07-31
Cluster Buster Maniac 1980 2014 2.0 4 2014-07-08 2014-08-06
Fm Attack Deja Vu 2013 4.1 20 2014-07-28 2017-11-25
Kid Machine First Contact 2014 1.0 1 2014-08-05 2015-04-18
P89 Old Computer's Tales 2013 0.0 0 2014-08-20 Never
Pulse 80 The Best Of 2013 2013 0.0 0 2014-08-21 Never
Righeira Righeira 1983 2.0 2 2014-08-21 2014-10-07
Righeira Bambini Forever 1986 0.0 0 2014-08-21 Never
Space March Monumental 2011 0.0 0 2014-09-06 Never
Студия-80 По Свету Млечного Пути 2014 0.0 0 2014-09-23 Never
Поп-Галактика Звёздный Дождь 1992 0.0 0 2014-11-25 Never
Твой День Мама 1990 1.0 2 2014-11-25 2014-12-14
Твой День Лучшие Песни 2005 0.0 0 2014-11-25 Never
Propaganda The Best Of Propaganda 2013 1.0 1 2014-12-24 2015-04-11
College Save the Day 2014 0.0 9 2015-01-21 2015-01-20
Journey Journey to NES 2014 5.0 17 2015-01-28 2015-06-07
Mr.Kitty Time 2014 3.0 16 2015-02-03 2015-05-31
Robots With Rayguns Fresh As It Gets 2014 2.0 8 2015-02-05 2015-05-25
Silver Pozzoli Around My Dream 1987 0.1 0 2015-04-08 Never
Ken Laszlo Greatest Hits & Remixes 2015 1.0 6 2015-05-06 2015-06-07
Riddlis We Think To Much And Feel To Little 2014 2.0 8 2015-05-21 2015-08-30
The Hunt Revengers Of The Darkness 2014 1.0 3 2015-05-22 2015-08-06
Vector Hold Mechanized 2014 3.0 12 2015-06-08 2015-09-04
Duett Borderline 2015 2.0 2 2015-09-03 2015-09-04
Dreamtime Particles 2015 5.0 5 2015-09-06 2016-04-21
Earmake Sunset Dream 2015 1.0 1 2015-09-06 2016-04-21
Stereo Back to Somewhere 2015 2.0 10 2015-09-10 2015-09-18
Palisded Club Amour 2015 1.0 4 2015-09-12 2015-12-30
Pulse 80 The Best Of 2014 1.0 3 2015-09-13 2015-12-21
SPACEINVADER Testdrive 2015 2.0 8 2015-09-13 2015-12-21
Synthgo Synthgo 2015 4.0 10 2015-09-14 2015-10-03
Cyber Space Interplanetary Voyages 2015 1.0 11 2015-11-22 2015-12-22
Eurotix Deux 2015 4.0 22 2015-11-25 2016-03-10
NightStop Return to Synth City 2015 3.0 15 2015-11-27 2016-03-30
Danger Mode Activation 2015 3.0 19 2015-12-24 2016-04-16
various The 80's Dream Compilation Tape Vol. 1 2012 0.0 0 2015-12-30 Never
various The 80's Dream Compilation Tape Vol. 2 2013 4.0 11 2015-12-30 2016-04-16
various The 80's Dream Compilation Tape Vol. 3 2015 1.0 2 2015-12-30 2016-03-26
various Future 80's Records Compilation Vol. 1 2013 0.0 0 2016-01-04 Never
M.ZI Sweet Zombie Killer 2015 1.0 3 2016-01-05 2016-03-10
Miami Nights 1984 Early Summer 2010 2.1 11 2016-01-05 2016-04-10
Sellorekt LA Dreams AfterTouch 2015 5.0 34 2016-02-18 2016-04-14
Tam Harrow Incredible Idiot 2015 7.0 35 2016-03-07 2016-04-19
Danger Mode Crime Wave 2014 4.0 9 2016-05-07 2016-05-24
Flash Arnold This Is It 2012 1.0 4 2016-05-09 2016-05-25
VHS Glitch Land With No Future 2015 0.0 0 2016-05-11 Never
Danger Mode Timeless 2013 0.0 0 2016-05-27 Never
Elezeid Transcendence 2015 3.0 8 2016-06-03 2016-07-13
Evanton Illusion 2016 0.0 0 2016-06-03 Never
Evanton Save The Night 2016 0.0 0 2016-06-06 Never
various Retrowave 02 2016 4.0 23 2016-10-02 2017-01-16
Starforce Omniversal Oscillations 2013 3.0 4 2016-10-06 2016-11-01
Neon Droid Ordinary Neon 2015 1.0 3 2016-10-07 2016-11-11
Laserdance Force Of Order 2016 8.0 17 2016-10-30 2017-01-14
Albert One Best Of Albert One 1998 1.0 4 2016-10-30 2016-11-02
Robert Parker The Singles 2013-2015 2015 2.0 4 2016-11-02 2016-12-21
Neoton Familia Aerobic 1983 0.0 1 2016-11-29 2016-11-29
various FCR Compilation Vol. X 2016 5.0 10 2016-12-15 2017-01-31
Silicon Dream Greatest Hits 2007 3.0 1 2017-02-19 2017-02-19
various Planet Italo Disco, Vol. 1 2016 2.0 0 2017-02-19 Never
Mirko Hirsch Lost in Alphaville 2016 2.0 1 2017-03-09 2017-04-06
Peter Zimmermann Uh Boy 2016 1.0 2 2017-03-09 2017-03-22
Mode-One Queen of My Heart 2016 4.0 3 2017-03-10 2017-05-23
Peter Zimmermann Neon Babes In New Dresses 2016 1.0 6 2017-03-19 2017-03-25
Peter Zimmermann Vapordisco 2017 0.0 1 2017-03-19 2017-03-19
Perturbator Nocturne City 2015 1.0 2 2017-04-16 2017-04-15
Sellorekt LA Dreams Perfect Summer 2012 0.0 0 2017-04-16 Never
various Future City Records Compilation Vol. IX 2015 10.0 10 2017-04-17 2017-06-21
VHS Glitch Demons With Shotguns 2015 3.0 13 2017-04-22 2017-04-21
Cosmo Cocktail Atmosphere Zero 2016 2.0 10 2017-04-24 2017-05-05
Sellorekt LA Dreams Maxiom 2016 3.0 7 2017-04-27 2017-09-27
Absolute Valentine American Nightmares 2013 0.0 3 2017-04-27 2017-04-27
Riddlis From Beyond To The Future 2015 5.0 12 2017-05-01 2017-04-30
Advection Stride Sentinel 2017 2.0 5 2017-06-22 2017-06-21
Retronic Voice Sea of Life 0 1.0 1 2017-06-25 2017-06-24
Intelligentsia Federation 1998 3.0 6 2017-07-03 2017-07-02
various PLUTO - A Synth Odyssey 2015 0.0 0 2017-07-23 Never
Eurotix Conquer the Universe 2017 2.0 0 2017-07-26 Never
various RetroSynth. In Synth We Wave 2017 11.0 13 2017-08-10 2018-01-13
Fatal Friction Faster Than Lightning 2017 1.0 10 2017-08-22 2018-01-14
Fatal Friction Palm FM 2017 0.0 4 2017-08-22 2017-08-22
Damokles Ozone Surfing 2016 1.0 0 2017-09-18 Never
Damokles Time Machine 2017 0.0 0 2017-09-18 Never
Fm Attack Astrowave 2010 3.0 7 2017-11-09 2017-12-30
Fm Attack Dreamatic 2009 2.0 4 2017-11-09 2017-12-16
AWITW Memories Of Love 2017 1.0 3 2018-01-20 2018-01-25
Peter Zimmermann One Last Dance 2017 0.0 0 2018-01-20 Never
Cluster Buster Midnight Maimer 2017 2.0 1 2018-01-25 2018-02-06
AWITW Neon Cityscape 2018 1.0 5 2018-01-26 2018-01-26
Bart Graft Go for Broke 2017 2.0 10 2018-01-31 2018-02-05
Midnight Driver Discotek 2017 1.0 4 2018-02-03 2018-04-09
various NewRetroWave Presents - Maximum Burn 2015 4.0 2 2018-02-18 2018-02-24
Maya Dangerously Hot 2017 1.0 11 2018-02-20 2018-03-16
Gazebo Italo By Numbers 2018 1.0 4 2018-03-25 2018-07-15
AWITW Digital Dreams 2018 2.0 2 2018-03-25 2018-07-15
Vector Hold Working Retail 2018 0.0 1 2018-12-18 2018-12-18
Paul Whitehead Neon Wave 2017 4.0 5 2019-09-30 2019-11-30
Grant Miller The Maxi-Singles Collection 1989 2.0 6 2019-11-20 2019-11-28
Tiger & Woods AOD 2019 1.0 4 2019-12-27 2020-06-08
Italoconnection Metropoli 2017 2.0 8 2020-01-14 2020-01-14
various Kung Fury 2015 4.0 0 2020-10-17 Never
Ken Laszlo Hey Hey Guy 2003 1.0 1 2020-10-20 2020-10-20
Interstellar Mercenaries Orbitalo 2018 1.0 1 2020-10-27 2020-12-22
Matteo Veroni Disco Kid Two 2018 1.0 4 2020-11-01 2020-12-27
Roland Sebastian Faber RSF 2018 2.0 6 2020-11-09 2021-03-24
Ray Orion I Know The Planet 2018 6.0 19 2020-11-09 2021-03-25
Silent Circle №1 1986 5.0 13 2020-11-24 2021-02-10
VideoKids The Invasion of the Spacepeckers 1984 1.0 2 2021-01-03 2021-03-24
various Space Odyssey – Trip Two - First Human in Space 2017 3.0 14 2021-01-03 2021-04-15
Spatial Vox Singles Compilation 2020 1.0 5 2021-01-03 2021-02-10
Tom Hooker Back In Time 2017 3.0 0 2021-03-21 Never
Kick Out The JAMS! Aulismedia Music Library 2018.02.18 "Space Oddity" © Sergey Mishenev 2003-2021